Rick Pumphrey — WDF8497 — position and weather

sailwx.info

Track history (hours):
 
Tides and Currents Weather Stations Pressure Air Temp Water Temp Dewpoint Dewpoint Depression Visibility Wind Speed Wind Dir Waves Ship Positions

Rick Pumphrey

Owner: Blessey Enterprises, Inc., Harahan, LA. More information available from US FCC via Universal Licensing System and Coast Guard Vessel Documentation Center.

Last reported at 2018-Jun-21 10:18 UTC. Time now 2018-Jun-21 11:54 UTC.
Position N 29°41' W 094°59'.

; draft 2.4 m.

Type: Tug. MMSI: 367495480.

Date/timePositionNaut miles runAvg speedWind from/ knotsBaromVisibWave heightAir tempDewpointWater temp
2018-Jun-21 10:18N 29°41' W 094°59'3 7.0
2018-Jun-21 09:52N 29°39' W 094°58'2 5.1
2018-Jun-21 09:30N 29°37' W 094°59'2 4.4
2018-Jun-21 08:58N 29°37' W 095°01'0 0.0
2018-Jun-21 08:30N 29°37' W 095°01'0 0.0
2018-Jun-21 08:00N 29°37' W 095°01'0 0.0
2018-Jun-21 07:30N 29°37' W 095°01'0 0.0
2018-Jun-21 07:00N 29°37' W 095°01'0 0.0
2018-Jun-21 06:29N 29°37' W 095°01'0 0.0
2018-Jun-21 06:00N 29°37' W 095°01'0 0.0
2018-Jun-21 05:28N 29°37' W 095°01'0 0.0
2018-Jun-21 04:57N 29°37' W 095°01'0 0.0
2018-Jun-21 04:30N 29°37' W 095°01'0 0.0
2018-Jun-21 04:00N 29°37' W 095°01'0 0.0
2018-Jun-21 03:27N 29°37' W 095°01'0 0.0
2018-Jun-21 02:59N 29°37' W 095°01'0 0.0
2018-Jun-21 02:29N 29°37' W 095°01'0 0.0
2018-Jun-21 01:59N 29°37' W 095°01'0 0.0
2018-Jun-21 01:30N 29°37' W 095°01'0 0.0
2018-Jun-21 00:59N 29°37' W 095°01'0 0.0
2018-Jun-21 00:30N 29°37' W 095°01'0 0.0
2018-Jun-21 00:00N 29°37' W 095°01'0 0.0
2018-Jun-20 23:30N 29°37' W 095°01'0 0.0
2018-Jun-20 22:57N 29°37' W 095°01'0 0.0
2018-Jun-20 22:30N 29°37' W 095°01'0 0.0
2018-Jun-20 21:59N 29°37' W 095°01'0 0.0
2018-Jun-20 21:30N 29°37' W 095°01'0 0.0
2018-Jun-20 20:59N 29°37' W 095°01'0 0.0
2018-Jun-20 20:30N 29°37' W 095°01'0 0.0
2018-Jun-20 19:59N 29°37' W 095°01'0 0.0
2018-Jun-20 19:29N 29°37' W 095°01'0 0.0
2018-Jun-20 19:00N 29°37' W 095°01'0 0.0
2018-Jun-20 18:30N 29°37' W 095°01'0 0.0
2018-Jun-20 18:00N 29°37' W 095°01'3 6.1
2018-Jun-20 17:28N 29°37' W 094°58'5 6.4
2018-Jun-20 16:45N 29°41' W 094°59'8 0.2
2018-Jun-19 01:43N 29°47' W 095°05'0 0.0
2018-Jun-19 01:23N 29°47' W 095°05'0 0.0
2018-Jun-18 19:46N 29°47' W 095°05'  
2018-Jun-15 05:04N 29°47' W 095°05'5 0.2
2018-Jun-14 03:26N 29°43' W 095°03'5 0.3
2018-Jun-13 13:16N 29°47' W 095°05'0 0.0
2018-Jun-13 06:20N 29°47' W 095°05'0 0.0
2018-Jun-13 05:54N 29°47' W 095°05'0 0.0
2018-Jun-13 05:30N 29°47' W 095°05'0 0.0
2018-Jun-13 05:00N 29°47' W 095°05'0 0.0
2018-Jun-13 04:29N 29°47' W 095°05'0 0.0
2018-Jun-13 03:59N 29°47' W 095°05'0 0.0
2018-Jun-13 03:28N 29°47' W 095°05'0 0.0
2018-Jun-13 02:57N 29°47' W 095°05'0 0.0
2018-Jun-13 02:30N 29°47' W 095°05'0 0.0
2018-Jun-13 01:59N 29°47' W 095°05'  
Track history (hours):
 
Tides and Currents Weather Stations Pressure Air Temp Water Temp Dewpoint Dewpoint Depression Visibility Wind Speed Wind Dir Waves Ship Positions

Rick Pumphrey

Owner: Blessey Enterprises, Inc., Harahan, LA. More information available from US FCC via Universal Licensing System and Coast Guard Vessel Documentation Center.

Last reported at 2018-Jun-21 10:18 UTC. Time now 2018-Jun-21 11:54 UTC.
Position N 29°41' W 094°59'.

; draft 2.4 m.

Type: Tug. MMSI: 367495480.

Date/timePositionNaut miles runAvg speedWind from/ knotsBaromVisibWave heightAir tempDewpointWater temp
2018-Jun-21 10:18N 29°41' W 094°59'3 7.0
2018-Jun-21 09:52N 29°39' W 094°58'2 5.1
2018-Jun-21 09:30N 29°37' W 094°59'2 4.4
2018-Jun-21 08:58N 29°37' W 095°01'0 0.0
2018-Jun-21 08:30N 29°37' W 095°01'0 0.0
2018-Jun-21 08:00N 29°37' W 095°01'0 0.0
2018-Jun-21 07:30N 29°37' W 095°01'0 0.0
2018-Jun-21 07:00N 29°37' W 095°01'0 0.0
2018-Jun-21 06:29N 29°37' W 095°01'0 0.0
2018-Jun-21 06:00N 29°37' W 095°01'0 0.0
2018-Jun-21 05:28N 29°37' W 095°01'0 0.0
2018-Jun-21 04:57N 29°37' W 095°01'0 0.0
2018-Jun-21 04:30N 29°37' W 095°01'0 0.0
2018-Jun-21 04:00N 29°37' W 095°01'0 0.0
2018-Jun-21 03:27N 29°37' W 095°01'0 0.0
2018-Jun-21 02:59N 29°37' W 095°01'0 0.0
2018-Jun-21 02:29N 29°37' W 095°01'0 0.0
2018-Jun-21 01:59N 29°37' W 095°01'0 0.0
2018-Jun-21 01:30N 29°37' W 095°01'0 0.0
2018-Jun-21 00:59N 29°37' W 095°01'0 0.0
2018-Jun-21 00:30N 29°37' W 095°01'0 0.0
2018-Jun-21 00:00N 29°37' W 095°01'0 0.0
2018-Jun-20 23:30N 29°37' W 095°01'0 0.0
2018-Jun-20 22:57N 29°37' W 095°01'0 0.0
2018-Jun-20 22:30N 29°37' W 095°01'0 0.0
2018-Jun-20 21:59N 29°37' W 095°01'0 0.0
2018-Jun-20 21:30N 29°37' W 095°01'0 0.0
2018-Jun-20 20:59N 29°37' W 095°01'0 0.0
2018-Jun-20 20:30N 29°37' W 095°01'0 0.0
2018-Jun-20 19:59N 29°37' W 095°01'0 0.0
2018-Jun-20 19:29N 29°37' W 095°01'0 0.0
2018-Jun-20 19:00N 29°37' W 095°01'0 0.0
2018-Jun-20 18:30N 29°37' W 095°01'0 0.0
2018-Jun-20 18:00N 29°37' W 095°01'3 6.1
2018-Jun-20 17:28N 29°37' W 094°58'5 6.4
2018-Jun-20 16:45N 29°41' W 094°59'8 0.2
2018-Jun-19 01:43N 29°47' W 095°05'0 0.0
2018-Jun-19 01:23N 29°47' W 095°05'0 0.0
2018-Jun-18 19:46N 29°47' W 095°05'  
2018-Jun-15 05:04N 29°47' W 095°05'5 0.2
2018-Jun-14 03:26N 29°43' W 095°03'5 0.3
2018-Jun-13 13:16N 29°47' W 095°05'0 0.0
2018-Jun-13 06:20N 29°47' W 095°05'0 0.0
2018-Jun-13 05:54N 29°47' W 095°05'0 0.0
2018-Jun-13 05:30N 29°47' W 095°05'0 0.0
2018-Jun-13 05:00N 29°47' W 095°05'0 0.0
2018-Jun-13 04:29N 29°47' W 095°05'0 0.0
2018-Jun-13 03:59N 29°47' W 095°05'0 0.0
2018-Jun-13 03:28N 29°47' W 095°05'0 0.0
2018-Jun-13 02:57N 29°47' W 095°05'0 0.0
2018-Jun-13 02:30N 29°47' W 095°05'0 0.0
2018-Jun-13 01:59N 29°47' W 095°05'  

Dump ship's entire track history